Flight Track Log - Related Links

Times and Time Zones

All times are in EST time to prevent confusion due to time zone crossing. See the JUS195 flight status page for this flight to view local times or setup timezone preferences in your user account.

Time Position Orientation Groundspeed Altitude Reporting Facility
EST Latitude Longitude Course Direction KTS MPH feet Rate Location/Type
Wed 01:41:14 PM 43.1775 -79.9611 252° West 175 201 2,200  Level Cleveland Center
Wed 01:42:16 PM 43.1583 -80.0253 248° West 172 198 3,600 1,790 Climbing Cleveland Center
Wed 01:43:18 PM 43.1475 -80.0975 258° West 215 247 5,900 3,581 Climbing Cleveland Center
Wed 01:44:20 PM 43.1367 -80.1819 260° West 239 275 11,000 3,726 Climbing Cleveland Center
Wed 01:45:22 PM 43.1217 -80.2767 258° West 254 292 13,600 1,500 Climbing Cleveland Center
Wed 01:46:00 PM 43.0410 -80.4782 252° West  Level Estimated
Wed 01:46:24 PM 43.1014 -80.3967 257° West 273 314 14,100  Level Cleveland Center
Wed 01:47:25 PM 43.0872 -80.5033 260° West 278 320 14,100 -49 Level Cleveland Center
Wed 01:48:27 PM 43.0703 -80.6078 258° West 278 320 14,000 -48 Descending Cleveland Center
Wed 01:49:29 PM 43.0544 -80.7128 258° West 278 320 14,000  Level Cleveland Center
Wed 01:50:31 PM 43.0375 -80.8175 258° West 279 321 14,000  Level Cleveland Center
Wed 01:51:33 PM 43.0200 -80.9214 257° West 279 321 14,000  Level Cleveland Center
Wed 01:52:35 PM 43.0022 -81.0261 257° West 279 321 14,000  Level Cleveland Center
Wed 01:53:37 PM 42.9811 -81.1469 257° West 279 321 14,000  Level Cleveland Center
Wed 01:54:39 PM 42.9631 -81.2511 257° West 279 321 14,000  Level Cleveland Center
Wed 01:55:41 PM 42.9450 -81.3558 257° West 279 321 14,000  Level Cleveland Center
Wed 01:56:29 PM 42.9167 -81.4333 243° Southwest 280 322 14,000  Level Toronto Center
Wed 01:57:29 PM 42.9000 -81.5500 259° West 280 322 14,000  Level Toronto Center
Wed 01:58:29 PM 42.8833 -81.6333 255° West 280 322 14,000 -250 Level Toronto Center
Wed 01:59:29 PM 42.8667 -81.7500 259° West 280 322 13,500 -750 Descending Toronto Center
Wed 02:00:29 PM 42.8500 -81.8333 255° West 260 299 12,500 -750 Descending Toronto Center
Wed 02:01:29 PM 42.8167 -81.9333 246° West 260 299 12,000 -200 Descending Toronto Center
Wed 02:02:29 PM 42.8000 -82.0500 259° West 280 322 12,100 -200 Climbing Toronto Center
Wed 02:03:29 PM 42.7667 -82.1333 241° Southwest 290 334 11,600 -500 Descending Toronto Center
Wed 02:04:29 PM 42.7500 -82.2500 259° West 270 311 11,100 -396 Descending Toronto Center
Wed 02:05:00 PM 42.7542 -82.2958 277° West 273 314 11,000 -1,419 Descending Cleveland Center
Wed 02:06:02 PM 42.7317 -82.3850 251° West 258 297 8,900 -1,984 Descending Cleveland Center
Wed 02:07:04 PM 42.7064 -82.4758 249° West 257 296 6,900 -1,980 Descending Cleveland Center
Wed 02:07:42 PM 42.6903 -82.5417 252° West 252 290 5,600 -1,452 Descending Cleveland Center
Wed 02:08:06 PM 42.6844 -82.5658 252° West 255 293 5,400 -581 Descending Cleveland Center
Wed 02:08:13 PM 42.6767 -82.5881 245° Southwest 251 289 5,300 -353 Descending Cleveland Center
Wed 02:09:14 PM 42.6081 -82.6106 194° South 264 304 5,000 -103 Descending Cleveland Center
Wed 02:10:10 PM 42.5569 -82.6347 199° South 258 297 5,100 98 Climbing Cleveland Center
Wed 02:10:15 PM 42.5361 -82.6492 207° Southwest 261 300 5,100  Level Cleveland Center
Wed 02:11:17 PM 42.4725 -82.6892 205° Southwest 255 293 5,100 -50 Level Cleveland Center
Wed 02:12:14 PM 42.4169 -82.7294 208° Southwest 255 293 5,000  Descending Cleveland Center
Wed 02:12:18 PM 42.4103 -82.7403 230° Southwest 250 288 5,100 97 Climbing Cleveland Center
Wed 02:13:16 PM 42.3606 -82.7864 214° Southwest 254 292 5,100  Level Cleveland Center
Wed 02:13:19 PM 42.3519 -82.7947 216° Southwest 260 299 5,100  Level Cleveland Center
Wed 02:14:18 PM 42.2986 -82.8444 215° Southwest 262 302 5,100  Level Cleveland Center
Wed 02:14:26 PM 42.2819 -82.8617 217° Southwest 267 307 5,100  Level Cleveland Center
Wed 02:15:22 PM 42.2339 -82.9200 222° Southwest 254 292 5,100  Level Cleveland Center
Wed 02:16:22 PM 42.2100 -82.9878 245° Southwest 251 289 5,100  Level Cleveland Center
Wed 02:16:23 PM 42.2022 -83.0058 240° Southwest 253 291 5,100  Level Cleveland Center
Wed 02:17:24 PM 42.1706 -83.0917 244° Southwest 259 298 5,100  Level Cleveland Center
Wed 02:18:25 PM 42.1653 -83.1894 266° West 254 292 5,100  Level Cleveland Center
Wed 02:18:26 PM 42.1650 -83.1847 95° East 262 302 5,100  Level Cleveland Center
Wed 02:19:28 PM 42.1800 -83.2750 283° West 259 298 5,100  Level Cleveland Center
Wed 02:20:27 PM 42.1967 -83.3800 282° West 256 295 5,100  Level Cleveland Center
Wed 02:20:30 PM 42.1958 -83.3708 97° East 259 298 5,100  Level Cleveland Center
Wed 02:21:29 PM 42.2144 -83.4725 284° West 248 285 5,100  Level Cleveland Center
Wed 02:21:33 PM 42.2131 -83.4636 102° East 259 298 5,100 -455 Level Cleveland Center
Wed 02:22:35 PM 42.2297 -83.5572 284° West 246 283 4,600 -763 Descending Cleveland Center
Wed 02:23:31 PM 42.2347 -83.6392 275° West 206 237 3,600 -968 Descending Cleveland Center
Wed 02:23:37 PM 42.2383 -83.6350 41° Northeast 224 258 3,600 -492 Level Cleveland Center
Wed 02:24:32 PM 42.2047 -83.6997 235° Southwest 203 234 3,100 -484 Descending Cleveland Center
Wed 02:24:39 PM 42.2092 -83.6983 13° North 224 258 3,100 -197 Level Cleveland Center
Wed 02:25:33 PM 42.1689 -83.6519 140° Southeast 173 199 2,900 -290 Descending Cleveland Center
Wed 02:25:41 PM 42.1678 -83.6486 114° Southeast 199 229 2,800 -484 Descending Cleveland Center
Wed 02:26:35 PM 42.1850 -83.6064 61° Northeast 131 151 2,400 -484 Descending Cleveland Center
Wed 02:26:43 PM 42.1867 -83.6039 48° Northeast 160 184 2,300 -806 Descending Cleveland Center
Wed 02:27:42 PM 42.2089 -83.5706 48° Northeast 112 129 1,500 -774 Descending Cleveland Center
Wed 02:27:45 PM 42.2081 -83.5717 225° Southwest 135 155 1,500 -646 Level Cleveland Center
Wed 02:28:47 PM 42.2306 -83.5400 46° Northeast 123 142 800 -677 Descending Cleveland Center

Login

Don't have an account? Register now (free) for customized features, flight alerts, and more!